Station: Wagga Wagga  

  Atmospheric Gas Attenuation - ITU Rec 676-11   ----------------- dB/100km -----------------
Date Time Temp RH % AH g/m3 Dew Point Wind Direction Speed kph Gust kph Barometer mB Rainfall Since 9am 24GHz 47GHz 76GHz 122GHz 134GHz 241GHz
08/05 12:30 14.5 69 8.58 8.9 26 35 1021.6 0 19.5 26.0 39.7 104.2 97.9 336.9
08/05 12:20 14.2 69 8.43 8.6 26 28 1021.8 0 19.2 25.8 39.3 103.0 96.4 331.3
08/05 12:10 13.8 71 8.46 8.6 26 28 1022 0 19.3 26.0 39.6 103.9 97.3 334.4
08/05 12:00 13.6 74 8.71 9.1 24 32 1022.2 0 19.8 26.5 40.7 106.8 100.9 347.0
08/05 11:50 13.1 76 8.67 9 20 24 1022.3 0 19.8 26.6 40.8 107.1 101.0 347.3
08/05 11:40 13.2 76 8.73 9.1 22 26 1022.4 0 19.9 26.6 41.0 107.6 101.7 349.7
08/05 11:30 13.1 77 8.79 9.2 19 26 1022.5 0 20.0 26.8 41.3 108.4 102.6 353.1
08/05 11:20 12.6 78 8.63 8.9 17 19 1022.7 0 19.7 26.7 41.0 107.4 101.1 347.8
08/05 11:10 12.6 77 8.52 8.7 17 22 1022.8 0 19.5 26.5 40.5 106.2 99.7 342.6
08/05 11:00 12.4 77 8.41 8.5 24 32 1022.7 0 19.2 26.4 40.2 105.3 98.4 338.3
08/05 10:50 12.2 78 8.42 8.5 22 30 1022.8 0 19.3 26.4 40.3 105.6 98.8 339.6
08/05 10:40 12 78 8.31 8.3 24 28 1022.8 0 19.0 26.3 40.0 104.7 97.6 335.3
08/05 10:30 12.2 81 8.74 9 26 32 1022.7 0 20.0 27.0 41.6 109.2 103.2 354.8
08/05 10:20 11.5 81 8.37 8.4 22 26 1022.9 0 19.2 26.6 40.5 106.0 99.0 340.3
08/05 10:10 11.2 80 8.11 7.9 24 32 1022.9 0 18.7 26.2 39.5 103.6 95.9 329.2
08/05 10:00 11.1 80 8.06 7.8 24 30 1022.8 0 18.6 26.2 39.4 103.2 95.3 327.3
08/05 09:50 11 81 8.11 7.9 26 32 1022.9 0 18.7 26.3 39.6 103.9 96.1 330.1
08/05 09:40 10.9 81 8.06 7.8 26 30 1023 0 18.6 26.2 39.5 103.4 95.6 328.2
08/05 09:30 10.6 82 8.01 7.7 24 32 1022.9 0 18.5 26.2 39.4 103.3 95.3 327.0
08/05 09:20 10.5 83 8.05 7.7 26 30 1023.1 0 18.6 26.3 39.7 103.9 96.0 329.4
08/05 09:10 10.3 82 7.85 7.4 26 32 1023 0 18.1 26.1 38.9 101.9 93.5 320.7
08/05 09:00 10.3 82 7.85 7.4 28 37 1022.8 0 18.1 26.0 38.9 101.9 93.5 320.6
08/05 08:50 10.2 82 7.81 7.3 26 32 1022.9 0 18.1 26.0 38.8 101.6 93.0 319.2
08/05 08:40 10.2 81 7.71 7.1 28 33 1022.8 0 17.8 25.8 38.4 100.5 91.7 314.4
08/05 08:30 10.1 81 7.66 7 28 33 1022.8 0 17.7 25.8 38.2 100.1 91.1 312.4
08/05 08:20 10.1 80 7.57 6.8 22 26 1022.9 0 17.5 25.6 37.9 99.1 89.9 308.2
08/05 08:10 10.1 80 7.57 6.8 24 30 1022.7 0 17.5 25.6 37.9 99.1 89.9 308.1
08/05 08:00 10 80 7.52 6.7 26 35 1022.5 0 17.4 25.6 37.7 98.6 89.3 306.1
08/05 07:50 10 80 7.52 6.7 28 33 1022.4 0 17.4 25.6 37.7 98.6 89.3 306.1
08/05 07:40 9.9 80 7.47 6.6 22 26 1022.4 0 17.3 25.5 37.5 98.2 88.8 304.1
08/05 07:30 9.7 80 7.38 6.4 20 26 1022.3 0 17.2 25.4 37.3 97.5 87.8 300.6
08/05 07:20 9.5 80 7.28 6.2 20 22 1022.3 0 17.0 25.3 36.9 96.6 86.7 296.7
08/05 07:10 9.4 80 7.24 6.1 17 19 1022.4 0 16.9 25.3 36.8 96.3 86.2 295.2
08/05 07:00 9.5 79 7.19 6 20 28 1022.3 0 16.8 25.2 36.6 95.7 85.5 292.5
08/05 06:50 9.5 79 7.19 6 20 24 1022.4 0 16.8 25.2 36.6 95.7 85.5 292.5
08/05 06:40 9.4 79 7.15 5.9 15 19 1022.4 0 16.7 25.1 36.5 95.3 85.0 291.0
08/05 06:30 9.3 79 7.1 5.9 19 28 1022.3 0 16.6 25.1 36.3 94.9 84.5 289.0
08/05 06:20 9.2 79 7.06 5.8 20 26 1022.2 0 16.5 25.0 36.2 94.6 84.0 287.5
08/05 06:10 9.1 79 7.01 5.7 20 24 1022.2 0 16.4 25.0 36.0 94.2 83.5 285.5
08/05 06:00 9 79 6.97 5.6 19 26 1022 0 16.3 24.9 35.9 93.8 83.0 283.9
08/05 05:50 8.9 79 6.92 5.5 15 17 1022.2 0 16.2 24.9 35.7 93.4 82.5 282.0
08/05 05:40 8.9 79 6.92 5.5 19 20 1022.2 0 16.2 24.9 35.7 93.4 82.5 282.0
08/05 05:30 8.8 78 6.79 5.2 22 28 1022.1 0 15.9 24.7 35.3 92.1 80.9 276.3
08/05 05:20 8.7 79 6.83 5.3 22 26 1022 0 16.0 24.8 35.5 92.7 81.5 278.5
08/05 05:10 8.5 79 6.75 5.1 19 22 1021.9 0 15.9 24.7 35.2 92.0 80.6 275.4
08/05 05:00 8.5 78 6.66 4.9 20 28 1021.8 0 15.7 24.6 34.9 91.1 79.4 271.2
08/05 04:50 8.8 77 6.7 5 19 22 1022 0 15.7 24.6 34.9 91.2 79.7 272.1
08/05 04:40 8.8 76 6.62 4.8 15 15 1022 0 15.6 24.4 34.6 90.3 78.6 268.4
08/05 04:30 8.8 76 6.62 4.8 20 26 1022.1 0 15.6 24.4 34.6 90.3 78.6 268.4
08/05 04:20 8.7 77 6.66 4.9 19 24 1022.1 0 15.7 24.5 34.8 90.9 79.2 270.6
08/05 04:10 8.4 78 6.62 4.8 19 24 1022 0 15.6 24.5 34.7 90.8 79.0 269.7
08/05 04:00 8 79 6.53 4.6 19 24 1021.7 0 15.4 24.5 34.5 90.2 78.2 266.8
08/05 03:50 8.3 78 6.58 4.7 19 22 1021.9 0 15.5 24.5 34.6 90.4 78.6 268.2
08/05 03:40 8.3 78 6.58 4.7 19 20 1021.8 0 15.5 24.5 34.6 90.4 78.6 268.2
08/05 03:30 7.9 79 6.49 4.5 17 19 1021.8 0 15.3 24.5 34.4 89.9 77.8 265.3
08/05 03:20 7.6 80 6.45 4.4 15 17 1022 0 15.3 24.5 34.4 89.9 77.6 264.5
08/05 03:10 7.2 79 6.2 3.8 13 15 1022.1 0 14.7 24.2 33.6 87.6 74.6 254.2
08/05 03:00 7.4 79 6.29 4 15 20 1022 0 14.9 24.3 33.9 88.4 75.6 257.7
08/05 02:50 7.8 77 6.29 4 15 17 1022.1 0 14.9 24.2 33.7 87.9 75.3 256.5
08/05 02:40 8.2 75 6.28 4 15 17 1022.3 0 14.9 24.1 33.5 87.4 74.7 254.7
08/05 02:30 8.5 74 6.32 4.1 19 28 1022.1 0 14.9 24.0 33.5 87.5 75.0 255.6
08/05 02:20 8.5 74 6.32 4.1 17 19 1022.3 0 14.9 24.0 33.5 87.5 75.0 255.6
08/05 02:10 8.5 74 6.32 4.1 17 19 1022.4 0 14.9 24.0 33.5 87.5 75.0 255.6
08/05 02:00 8.5 75 6.41 4.3 17 20 1022.4 0 15.1 24.2 33.9 88.5 76.2 259.8
08/05 01:50 8.4 75 6.36 4.2 19 20 1022.4 0 15.0 24.1 33.7 88.0 75.6 257.8
08/05 01:40 8.4 75 6.36 4.2 17 17 1022.5 0 15.0 24.1 33.7 88.0 75.6 257.8
08/05 01:30 8.3 76 6.41 4.3 20 28 1022.5 0 15.1 24.2 34.0 88.7 76.4 260.5
08/05 01:20 8.1 76 6.33 4.1 19 22 1022.7 0 15.0 24.2 33.7 88.1 75.5 257.5
08/05 01:10 7.9 77 6.33 4.1 15 17 1022.8 0 15.0 24.2 33.8 88.3 75.7 258.1
08/05 01:00 8 76 6.29 4 17 19 1022.9 0 14.9 24.1 33.6 87.8 75.1 256.0
08/05 00:50 8.4 75 6.36 4.2 19 20 1023.2 0 15.0 24.2 33.8 88.1 75.7 258.0
08/05 00:40 8.1 77 6.41 4.3 17 19 1023.2 0 15.1 24.3 34.1 89.0 76.6 261.3
08/05 00:20 7.8 78 6.37 4.2 17 19 1023.1 0 15.1 24.3 34.0 88.9 76.4 260.4
08/05 00:10 7.7 77 6.25 3.9 15 17 1023.2 0 14.8 24.2 33.6 87.7 74.9 255.2
08/05 00:00 7.9 76 6.25 3.9 15 17 1023.1 0 14.8 24.1 33.5 87.5 74.7 254.5
07/05 23:50 7.9 76 6.25 3.9 15 19 1023.3 0 14.8 24.1 33.5 87.5 74.7 254.5
07/05 23:40 7.9 75 6.16 3.8 17 19 1023.3 0 14.6 24.0 33.2 86.5 73.5 250.4
07/05 23:30 8.2 74 6.2 3.9 17 22 1023.3 0 14.7 24.0 33.2 86.6 73.8 251.3
07/05 23:20 8.4 74 6.28 4 19 20 1023.5 0 14.9 24.0 33.5 87.3 74.6 254.4
07/05 23:10 8.4 73 6.2 3.8 15 17 1023.6 0 14.7 23.9 33.1 86.5 73.6 250.7
07/05 23:00 8.3 74 6.24 3.9 15 19 1023.7 0 14.8 24.0 33.3 87.0 74.2 252.9
07/05 22:50 8.1 74 6.16 3.8 17 19 1023.9 0 14.6 24.0 33.1 86.4 73.4 249.9
07/05 22:40 8.1 75 6.24 3.9 17 20 1023.9 0 14.8 24.1 33.4 87.2 74.4 253.6
07/05 22:30 8 74 6.12 3.7 19 24 1023.7 0 14.5 23.9 33.0 86.0 72.9 248.3
07/05 22:20 7.8 74 6.04 3.5 19 24 1023.9 0 14.4 23.8 32.8 85.4 72.1 245.3
07/05 22:10 8 73 6.04 3.5 22 24 1023.9 0 14.4 23.8 32.7 85.2 71.9 244.7
07/05 22:00 8.2 72 6.03 3.5 19 26 1023.8 0 14.3 23.7 32.6 84.9 71.6 243.6
07/05 21:50 8.2 71 5.95 3.3 20 24 1024 0 14.2 23.6 32.3 84.1 70.6 240.0
07/05 21:40 8.6 69 5.93 3.2 26 30 1023.9 0 14.1 23.5 32.0 83.4 69.9 237.9
07/05 21:30 8.8 69 6.01 3.4 22 28 1023.5 0 14.3 23.5 32.2 84.0 70.8 240.8
07/05 21:20 9 68 6 3.4 20 26 1023.7 0 14.2 23.5 32.1 83.7 70.5 239.8
07/05 21:10 8.8 69 6.01 3.4 22 24 1023.6 0 14.3 23.5 32.2 84.0 70.8 240.8
07/05 21:00 8.6 69 5.93 3.2 20 32 1023.4 0 14.1 23.4 32.0 83.4 69.9 237.8
07/05 20:50 8.9 69 6.05 3.5 19 24 1023.4 0 14.3 23.5 32.3 84.3 71.2 242.3
07/05 20:40 8.9 69 6.05 3.5 17 22 1023.4 0 14.3 23.5 32.3 84.3 71.2 242.3
07/05 20:30 8.4 70 5.94 3.3 17 19 1023.4 0 14.1 23.5 32.1 83.7 70.2 238.8
07/05 20:20 7.7 74 6 3.4 11 15 1023.4 0 14.3 23.8 32.6 85.1 71.6 243.7
07/05 20:10 7.4 74 5.89 3.1 9 9 1023.4 0 14.1 23.7 32.3 84.2 70.5 239.6
07/05 20:00 7.7 71 5.76 2.8 11 15 1023.3 0 13.8 23.4 31.7 82.5 68.5 232.7
07/05 19:50 8.2 70 5.86 3.1 11 13 1023.4 0 14.0 23.4 31.9 83.1 69.4 235.8

Last Refresh: 08-May-2026 12:08:01

Bureau of Meteorology